createdAt,value
2022-10-25T00:00:15.069Z,14.85
2022-10-25T00:01:16.013Z,14.82
2022-10-25T00:02:14.350Z,14.81
2022-10-25T00:03:14.551Z,14.79
2022-10-25T00:04:14.409Z,14.79
2022-10-25T00:05:14.471Z,14.80
2022-10-25T00:06:14.086Z,14.82
2022-10-25T00:07:13.885Z,14.81
2022-10-25T00:08:14.545Z,14.80
2022-10-25T00:09:14.216Z,14.78
2022-10-25T00:10:13.972Z,14.76
2022-10-25T00:11:15.001Z,14.74
2022-10-25T00:12:13.906Z,14.73
2022-10-25T00:13:15.228Z,14.73
2022-10-25T00:14:13.756Z,14.73
2022-10-25T00:15:15.062Z,14.75
2022-10-25T00:16:14.016Z,14.75
2022-10-25T00:17:13.821Z,14.76
2022-10-25T00:18:14.511Z,14.78
2022-10-25T00:19:14.019Z,14.77
2022-10-25T00:20:13.730Z,14.79
2022-10-25T00:21:14.569Z,14.81
2022-10-25T00:22:14.318Z,14.85
2022-10-25T00:23:13.855Z,14.86
2022-10-25T00:24:14.829Z,14.86
2022-10-25T00:25:15.022Z,14.84
2022-10-25T00:26:13.694Z,14.83
2022-10-25T00:27:14.217Z,14.82
2022-10-25T00:28:13.755Z,14.83
2022-10-25T00:29:14.793Z,14.83
2022-10-25T00:30:15.027Z,14.84
2022-10-25T00:31:13.567Z,14.84
2022-10-25T00:32:13.998Z,14.84
2022-10-25T00:33:13.598Z,14.85
2022-10-25T00:34:14.221Z,14.85
2022-10-25T00:35:13.639Z,14.86
2022-10-25T00:36:14.142Z,14.85
2022-10-25T00:37:13.569Z,14.85
2022-10-25T00:38:14.101Z,14.83
2022-10-25T00:39:13.600Z,14.82
2022-10-25T00:40:13.980Z,14.82
2022-10-25T00:41:13.941Z,14.83
2022-10-25T00:42:14.288Z,14.83
2022-10-25T00:43:13.708Z,14.81
2022-10-25T00:44:14.022Z,14.82
2022-10-25T00:45:13.807Z,14.84
2022-10-25T00:46:14.165Z,14.82
2022-10-25T00:47:13.650Z,14.80
2022-10-25T00:48:14.223Z,14.77
2022-10-25T00:49:13.546Z,14.75
2022-10-25T00:50:14.201Z,14.73
2022-10-25T00:51:13.780Z,14.70
2022-10-25T00:52:14.029Z,14.69
2022-10-25T00:53:13.515Z,14.68
2022-10-25T00:54:14.074Z,14.65
2022-10-25T00:55:13.794Z,14.64
2022-10-25T00:56:14.218Z,14.61
2022-10-25T00:57:13.516Z,14.61
2022-10-25T00:58:13.810Z,14.60
2022-10-25T00:59:14.111Z,14.58
2022-10-25T01:00:14.860Z,14.57
2022-10-25T01:01:14.163Z,14.56
2022-10-25T01:02:14.278Z,14.55
2022-10-25T01:03:14.004Z,14.54
2022-10-25T01:04:13.310Z,14.54
2022-10-25T01:05:13.964Z,14.55
2022-10-25T01:06:14.278Z,14.55
2022-10-25T01:07:13.795Z,14.53
2022-10-25T01:08:14.292Z,14.52
2022-10-25T01:09:14.065Z,14.52
2022-10-25T01:10:13.723Z,14.52
2022-10-25T01:11:14.392Z,14.51
2022-10-25T01:12:13.957Z,14.49
2022-10-25T01:13:14.291Z,14.51
2022-10-25T01:14:13.934Z,14.52
2022-10-25T01:15:14.616Z,14.51
2022-10-25T01:17:13.740Z,14.50
2022-10-25T01:18:14.332Z,14.48
2022-10-25T01:19:13.659Z,14.47
2022-10-25T01:20:14.292Z,14.45
2022-10-25T01:21:13.854Z,14.44
2022-10-25T01:22:14.446Z,14.43
2022-10-25T01:23:12.213Z,14.42
2022-10-25T01:24:13.770Z,14.42
2022-10-25T01:25:14.422Z,14.40
2022-10-25T01:26:14.061Z,14.38
2022-10-25T01:27:13.566Z,14.38
2022-10-25T01:28:13.967Z,14.36
2022-10-25T01:29:14.706Z,14.36
2022-10-25T01:30:22.648Z,14.34
2022-10-25T01:31:13.985Z,14.34
2022-10-25T01:32:18.478Z,14.32
2022-10-25T01:33:13.799Z,14.30
2022-10-25T01:34:14.450Z,14.32
2022-10-25T01:35:13.896Z,14.32
2022-10-25T01:36:14.856Z,14.32
2022-10-25T01:37:14.592Z,14.31
2022-10-25T01:38:14.063Z,14.30
2022-10-25T01:39:13.583Z,14.28
2022-10-25T01:40:13.986Z,14.27
2022-10-25T01:41:13.581Z,14.28
2022-10-25T01:42:14.331Z,14.27
2022-10-25T01:43:13.703Z,14.28
2022-10-25T01:44:14.203Z,14.28
2022-10-25T01:45:14.021Z,14.28
2022-10-25T01:46:13.403Z,14.27
2022-10-25T01:47:13.986Z,14.24
2022-10-25T01:48:13.356Z,14.25
2022-10-25T01:49:13.904Z,14.25
2022-10-25T01:50:14.298Z,14.24
2022-10-25T01:51:13.804Z,14.25
2022-10-25T01:52:14.131Z,14.24
2022-10-25T01:53:13.705Z,14.24
2022-10-25T01:54:14.056Z,14.23
2022-10-25T01:55:14.205Z,14.22
2022-10-25T01:56:13.354Z,14.22
2022-10-25T01:57:13.587Z,14.23
2022-10-25T01:58:13.623Z,14.24
2022-10-25T01:59:13.962Z,14.26
2022-10-25T02:00:34.152Z,14.28
2022-10-25T02:01:14.061Z,14.28
2022-10-25T02:02:13.613Z,14.27
2022-10-25T02:03:14.044Z,14.28
2022-10-25T02:04:13.736Z,14.29
2022-10-25T02:05:14.896Z,14.29
2022-10-25T02:06:14.400Z,14.32
2022-10-25T02:07:13.864Z,14.35
2022-10-25T02:08:14.274Z,14.36
2022-10-25T02:09:13.551Z,14.35
2022-10-25T02:10:14.106Z,14.35
2022-10-25T02:11:13.638Z,14.34
2022-10-25T02:12:14.095Z,14.35
2022-10-25T02:13:13.530Z,14.35
2022-10-25T02:14:13.847Z,14.36
2022-10-25T02:15:14.636Z,14.36
2022-10-25T02:16:14.121Z,14.34
2022-10-25T02:17:13.711Z,14.35
2022-10-25T02:18:14.061Z,14.36
2022-10-25T02:19:13.415Z,14.36
2022-10-25T02:20:13.999Z,14.37
2022-10-25T02:21:13.555Z,14.39
2022-10-25T02:22:13.693Z,14.41
2022-10-25T02:23:13.965Z,14.40
2022-10-25T02:24:14.312Z,14.40
2022-10-25T02:25:13.951Z,14.39
2022-10-25T02:26:14.358Z,14.38
2022-10-25T02:27:13.702Z,14.37
2022-10-25T02:28:14.029Z,14.38
2022-10-25T02:29:13.644Z,14.39
2022-10-25T02:30:14.084Z,14.39
2022-10-25T02:31:13.738Z,14.38
2022-10-25T02:32:14.545Z,14.38
2022-10-25T02:33:13.853Z,14.37
2022-10-25T02:34:42.199Z,14.39
2022-10-25T02:36:46.334Z,14.41
2022-10-25T02:37:13.825Z,14.41
2022-10-25T02:38:13.865Z,14.42
2022-10-25T02:39:14.226Z,14.41
2022-10-25T02:40:13.882Z,14.40
2022-10-25T02:41:14.295Z,14.39
2022-10-25T02:42:13.725Z,14.38
2022-10-25T02:43:14.259Z,14.39
2022-10-25T02:44:13.738Z,14.39
2022-10-25T02:45:14.682Z,14.40
2022-10-25T02:46:14.129Z,14.39
2022-10-25T02:47:13.717Z,14.41
2022-10-25T02:48:14.096Z,14.42
2022-10-25T02:49:13.511Z,14.42
2022-10-25T02:50:13.975Z,14.42
2022-10-25T02:51:14.459Z,14.39
2022-10-25T02:52:13.945Z,14.38
2022-10-25T02:53:14.451Z,14.37
2022-10-25T02:54:13.754Z,14.35
2022-10-25T02:55:14.411Z,14.33
2022-10-25T02:56:13.646Z,14.31
2022-10-25T02:57:13.990Z,14.28
2022-10-25T02:58:13.541Z,14.26
2022-10-25T02:59:13.788Z,14.24
2022-10-25T03:00:15.402Z,14.24
2022-10-25T03:01:14.351Z,14.23
2022-10-25T03:02:13.812Z,14.21
2022-10-25T03:03:14.138Z,14.20
2022-10-25T03:04:13.605Z,14.17
2022-10-25T03:05:14.104Z,14.15
2022-10-25T03:06:13.677Z,14.12
2022-10-25T03:07:14.030Z,14.10
2022-10-25T03:08:13.546Z,14.08
2022-10-25T03:09:14.051Z,14.07
2022-10-25T03:10:13.808Z,14.08
2022-10-25T03:11:14.393Z,14.07
2022-10-25T03:12:14.454Z,14.08
2022-10-25T03:13:14.204Z,14.07
2022-10-25T03:14:13.705Z,14.07
2022-10-25T03:15:14.363Z,14.06
2022-10-25T03:16:14.079Z,14.05
2022-10-25T03:17:13.773Z,14.03
2022-10-25T03:18:14.544Z,14.03
2022-10-25T03:19:14.049Z,14.04
2022-10-25T03:20:13.657Z,14.03
2022-10-25T03:21:13.987Z,14.03
2022-10-25T03:22:13.799Z,14.04
2022-10-25T03:23:14.473Z,14.02
2022-10-25T03:24:13.986Z,14.01
2022-10-25T03:25:13.526Z,13.99
2022-10-25T03:26:13.879Z,13.98
2022-10-25T03:27:14.472Z,13.98
2022-10-25T03:28:14.029Z,13.98
2022-10-25T03:29:13.739Z,13.97
2022-10-25T03:30:14.804Z,14.01
2022-10-25T03:31:14.926Z,14.09
2022-10-25T03:32:14.674Z,14.11
2022-10-25T03:33:14.128Z,14.12
2022-10-25T03:34:13.623Z,14.11
2022-10-25T03:35:14.237Z,14.13
2022-10-25T03:36:13.889Z,14.14
2022-10-25T03:37:14.490Z,14.13
2022-10-25T03:38:14.110Z,14.12
2022-10-25T03:39:13.718Z,14.14
2022-10-25T03:40:14.518Z,14.17
2022-10-25T03:41:14.055Z,14.18
2022-10-25T03:42:13.937Z,14.17
2022-10-25T03:43:15.195Z,14.16
2022-10-25T03:44:13.749Z,14.16
2022-10-25T03:45:14.577Z,14.18
2022-10-25T03:46:14.037Z,14.17
2022-10-25T03:47:18.389Z,14.20
2022-10-25T03:48:14.244Z,14.19
2022-10-25T03:49:13.958Z,14.17
2022-10-25T03:50:14.692Z,14.17
2022-10-25T03:51:14.250Z,14.18
2022-10-25T03:52:13.749Z,14.18
2022-10-25T03:53:14.347Z,14.17
2022-10-25T03:54:13.343Z,14.16
2022-10-25T03:55:14.100Z,14.13
2022-10-25T03:56:13.470Z,14.12
2022-10-25T03:57:22.822Z,14.10
2022-10-25T03:58:14.118Z,14.10
2022-10-25T03:59:27.537Z,14.10
2022-10-25T04:00:15.472Z,14.10
2022-10-25T04:01:14.356Z,14.10
2022-10-25T04:02:13.919Z,14.10
2022-10-25T04:03:14.749Z,14.09
2022-10-25T04:04:14.096Z,14.09
2022-10-25T04:05:21.869Z,14.08
2022-10-25T04:06:14.523Z,14.09
2022-10-25T04:07:13.969Z,14.08
2022-10-25T04:08:14.478Z,14.09
2022-10-25T04:09:13.988Z,14.10
2022-10-25T04:10:13.611Z,14.12
2022-10-25T04:11:14.080Z,14.15
2022-10-25T04:12:13.581Z,14.15
2022-10-25T04:13:14.000Z,14.15
2022-10-25T04:14:13.745Z,14.13
2022-10-25T04:15:14.675Z,14.12
2022-10-25T04:16:17.050Z,14.13
2022-10-25T04:17:13.827Z,14.14
2022-10-25T04:18:14.335Z,14.15
2022-10-25T04:19:14.114Z,14.16
2022-10-25T04:20:13.873Z,14.18
2022-10-25T04:21:14.762Z,14.18
2022-10-25T04:22:14.295Z,14.18
2022-10-25T04:23:13.920Z,14.18
2022-10-25T04:24:14.371Z,14.19
2022-10-25T04:25:14.313Z,14.20
2022-10-25T04:26:13.991Z,14.22
2022-10-25T04:27:13.418Z,14.21
2022-10-25T04:28:13.953Z,14.21
2022-10-25T04:29:15.182Z,14.19
2022-10-25T04:30:14.839Z,14.18
2022-10-25T04:31:14.778Z,14.18
2022-10-25T04:32:14.611Z,14.18
2022-10-25T04:33:36.501Z,14.21
2022-10-25T04:34:14.085Z,14.21
2022-10-25T04:35:14.041Z,14.23
2022-10-25T04:36:13.296Z,14.22
2022-10-25T04:37:13.900Z,14.21
2022-10-25T04:38:14.289Z,14.18
2022-10-25T04:39:14.050Z,14.16
2022-10-25T04:40:13.723Z,14.14
2022-10-25T04:41:14.224Z,14.13
2022-10-25T04:42:13.948Z,14.11
2022-10-25T04:43:14.420Z,14.10
2022-10-25T04:44:14.008Z,14.07
2022-10-25T04:45:14.209Z,14.04
2022-10-25T04:46:13.958Z,14.02
2022-10-25T04:47:14.651Z,14.01
2022-10-25T04:48:14.463Z,13.99
2022-10-25T04:49:14.122Z,13.98
2022-10-25T04:50:14.066Z,13.97
2022-10-25T04:51:13.678Z,13.97
2022-10-25T04:52:14.307Z,13.99
2022-10-25T04:53:14.048Z,13.97
2022-10-25T04:54:13.676Z,13.98
2022-10-25T04:55:14.626Z,13.99
2022-10-25T04:56:14.339Z,14
2022-10-25T04:57:14.217Z,14.00
2022-10-25T04:58:14.131Z,14.01
2022-10-25T04:59:13.794Z,14.02
2022-10-25T05:00:15.357Z,14.05
2022-10-25T05:01:14.230Z,14.07
2022-10-25T05:02:13.893Z,14.11
2022-10-25T05:03:18.353Z,14.12
2022-10-25T05:04:13.996Z,14.12
2022-10-25T05:05:13.791Z,14.12
2022-10-25T05:06:14.650Z,14.13
2022-10-25T05:07:14.470Z,14.14
2022-10-25T05:08:14.300Z,14.17
2022-10-25T05:09:13.960Z,14.18
2022-10-25T05:10:15.066Z,14.19
2022-10-25T05:11:14.524Z,14.19
2022-10-25T05:12:14.359Z,14.20
2022-10-25T05:13:13.855Z,14.21
2022-10-25T05:14:14.742Z,14.22
2022-10-25T05:15:14.870Z,14.23
2022-10-25T05:16:14.859Z,14.25
2022-10-25T05:17:14.812Z,14.24
2022-10-25T05:18:14.682Z,14.23
2022-10-25T05:19:14.845Z,14.21
2022-10-25T05:20:14.733Z,14.19
2022-10-25T05:21:14.531Z,14.18
2022-10-25T05:22:13.975Z,14.18
2022-10-25T05:23:14.652Z,14.17
2022-10-25T05:24:14.315Z,14.17
2022-10-25T05:25:14.313Z,14.17
2022-10-25T05:26:13.864Z,14.17
2022-10-25T05:27:14.765Z,14.17
2022-10-25T05:28:14.217Z,14.17
2022-10-25T05:29:15.452Z,14.17
2022-10-25T05:30:14.462Z,14.17
2022-10-25T05:31:15.353Z,14.16
2022-10-25T05:32:13.988Z,14.15
2022-10-25T05:33:13.759Z,14.15
2022-10-25T05:34:14.737Z,14.16
2022-10-25T05:35:14.755Z,14.17
2022-10-25T05:36:14.407Z,14.18
2022-10-25T05:37:14.197Z,14.18
2022-10-25T05:38:13.977Z,14.17
2022-10-25T05:39:14.724Z,14.17
2022-10-25T05:40:14.641Z,14.16
2022-10-25T05:41:14.360Z,14.14
2022-10-25T05:42:13.947Z,14.14
2022-10-25T05:43:14.756Z,14.11
2022-10-25T05:44:14.334Z,14.10
2022-10-25T05:45:14.842Z,14.10
2022-10-25T05:46:14.137Z,14.11
2022-10-25T05:47:13.845Z,14.11
2022-10-25T05:48:14.413Z,14.11
2022-10-25T05:49:13.973Z,14.10
2022-10-25T05:50:15.007Z,14.08
2022-10-25T05:51:38.419Z,14.07
2022-10-25T05:52:13.864Z,14.07
2022-10-25T05:53:14.778Z,14.05
2022-10-25T05:54:14.309Z,14.01
2022-10-25T05:55:14.109Z,14.00
2022-10-25T05:56:13.704Z,14
2022-10-25T05:57:14.298Z,14
2022-10-25T05:58:14.008Z,13.99
2022-10-25T05:59:13.915Z,13.97
2022-10-25T06:00:15.666Z,13.94
2022-10-25T06:01:15.345Z,13.93
2022-10-25T06:02:14.597Z,13.91
2022-10-25T06:03:15.084Z,13.92
2022-10-25T06:04:14.253Z,13.93
2022-10-25T06:05:15.068Z,13.90
2022-10-25T06:06:14.476Z,13.87
2022-10-25T06:07:14.249Z,13.90
2022-10-25T06:09:14.293Z,13.97
2022-10-25T06:10:15.801Z,13.98
2022-10-25T06:11:15.375Z,13.99
2022-10-25T06:12:14.895Z,14.01
2022-10-25T06:13:14.831Z,13.98
2022-10-25T06:14:14.264Z,13.96
2022-10-25T06:15:14.405Z,13.95
2022-10-25T06:16:13.865Z,13.94
2022-10-25T06:17:15.150Z,13.92
2022-10-25T06:18:13.768Z,13.91
2022-10-25T06:19:14.298Z,13.91
2022-10-25T06:20:14.211Z,13.90
2022-10-25T06:21:13.806Z,13.90
2022-10-25T06:22:14.484Z,13.90
2022-10-25T06:23:16.145Z,13.89
2022-10-25T06:24:14.126Z,13.86
2022-10-25T06:25:13.956Z,13.82
2022-10-25T06:26:14.507Z,13.82
2022-10-25T06:27:14.110Z,13.79
2022-10-25T06:28:13.479Z,13.77
2022-10-25T06:29:13.960Z,13.76
2022-10-25T06:30:20.115Z,13.75
2022-10-25T06:31:13.788Z,13.72
2022-10-25T06:32:14.557Z,13.72
2022-10-25T06:33:14.152Z,13.70
2022-10-25T06:34:13.544Z,13.68
2022-10-25T06:35:14.077Z,13.67
2022-10-25T06:36:13.647Z,13.63
2022-10-25T06:37:14.686Z,13.63
2022-10-25T06:38:14.049Z,13.58
2022-10-25T06:39:13.664Z,13.52
2022-10-25T06:40:14.423Z,13.52
2022-10-25T06:41:13.779Z,13.52
2022-10-25T06:42:14.689Z,13.52
2022-10-25T06:43:14.420Z,13.51
2022-10-25T06:44:13.835Z,13.47
2022-10-25T06:45:14.843Z,13.47
2022-10-25T06:46:14.396Z,13.47
2022-10-25T06:47:22.601Z,13.45
2022-10-25T06:48:14.160Z,13.45
2022-10-25T06:49:13.682Z,13.45
2022-10-25T06:50:14.268Z,13.45
2022-10-25T06:51:13.743Z,13.46
2022-10-25T06:52:14.471Z,13.48
2022-10-25T06:53:13.930Z,13.50
2022-10-25T06:54:14.829Z,13.51
2022-10-25T06:55:14.605Z,13.52
2022-10-25T06:57:13.809Z,13.53
2022-10-25T06:58:14.460Z,13.55
2022-10-25T06:59:14.393Z,13.55
2022-10-25T07:00:15.007Z,13.58
2022-10-25T07:01:13.730Z,13.59
2022-10-25T07:02:42.615Z,13.64
2022-10-25T07:03:14.353Z,13.64
2022-10-25T07:04:14.155Z,13.66
2022-10-25T07:05:13.785Z,13.68
2022-10-25T07:06:14.546Z,13.69
2022-10-25T07:07:14.162Z,13.70
2022-10-25T07:08:13.583Z,13.72
2022-10-25T07:09:14.263Z,13.74
2022-10-25T07:10:13.944Z,13.77
2022-10-25T07:11:14.667Z,13.78
2022-10-25T07:12:17.775Z,13.80
2022-10-25T07:13:14.506Z,13.81
2022-10-25T07:14:14.375Z,13.83
2022-10-25T07:15:14.575Z,13.85
2022-10-25T07:16:14.317Z,13.89
2022-10-25T07:17:14.283Z,13.92
2022-10-25T07:18:13.901Z,13.93
2022-10-25T07:19:14.410Z,13.96
2022-10-25T07:20:14.152Z,13.99
2022-10-25T07:21:13.489Z,14.03
2022-10-25T07:22:13.945Z,14.05
2022-10-25T07:23:14.818Z,14.06
2022-10-25T07:24:14.570Z,14.06
2022-10-25T07:25:14.586Z,14.09
2022-10-25T07:26:14.381Z,14.10
2022-10-25T07:27:13.978Z,14.10
2022-10-25T07:28:14.639Z,14.09
2022-10-25T07:29:13.901Z,14.09
2022-10-25T07:30:14.777Z,14.10
2022-10-25T07:31:14.574Z,14.09
2022-10-25T07:32:14.323Z,14.09
2022-10-25T07:33:13.867Z,14.10
2022-10-25T07:34:14.652Z,14.11
2022-10-25T07:35:14.254Z,14.11
2022-10-25T07:36:16.418Z,14.12
2022-10-25T07:37:13.889Z,14.11
2022-10-25T07:38:14.567Z,14.13
2022-10-25T07:39:13.944Z,14.15
2022-10-25T07:40:14.764Z,14.17
2022-10-25T07:41:14.508Z,14.18
2022-10-25T07:42:14.329Z,14.19
2022-10-25T07:43:13.985Z,14.21
2022-10-25T07:45:16.274Z,14.25
2022-10-25T07:46:14.502Z,14.27
2022-10-25T07:47:13.925Z,14.29
2022-10-25T07:48:14.350Z,14.30
2022-10-25T07:49:13.778Z,14.32
2022-10-25T07:50:14.621Z,14.36
2022-10-25T07:51:14.087Z,14.36
2022-10-25T07:52:13.448Z,14.37
2022-10-25T07:53:13.907Z,14.38
2022-10-25T07:54:14.267Z,14.39
2022-10-25T07:55:13.789Z,14.43
2022-10-25T07:56:17.509Z,14.46
2022-10-25T07:57:14.085Z,14.45
2022-10-25T07:58:13.371Z,14.44
2022-10-25T07:59:13.744Z,14.46
2022-10-25T08:00:15.528Z,14.47
2022-10-25T08:01:14.325Z,14.47
2022-10-25T08:02:13.683Z,14.48
2022-10-25T08:03:14.413Z,14.5
2022-10-25T08:04:14.269Z,14.53
2022-10-25T08:05:14.032Z,14.55
2022-10-25T08:06:13.611Z,14.55
2022-10-25T08:07:14.249Z,14.55
2022-10-25T08:08:13.690Z,14.54
2022-10-25T08:09:37.740Z,14.56
2022-10-25T08:10:13.980Z,14.56
2022-10-25T08:11:13.918Z,14.57
2022-10-25T08:12:17.045Z,14.59
2022-10-25T08:13:13.890Z,14.59
2022-10-25T08:14:14.700Z,14.62
2022-10-25T08:15:14.546Z,14.73
2022-10-25T08:16:14.249Z,14.71
2022-10-25T08:17:13.475Z,14.72
2022-10-25T08:18:13.963Z,14.71
2022-10-25T08:19:14.616Z,14.73
2022-10-25T08:20:14.258Z,14.76
2022-10-25T08:21:13.682Z,14.79
2022-10-25T08:22:14.638Z,14.81
2022-10-25T08:23:14.371Z,14.83
2022-10-25T08:24:14.184Z,14.86
2022-10-25T08:25:14.096Z,14.86
2022-10-25T08:26:13.895Z,14.86
2022-10-25T08:27:14.604Z,14.88
2022-10-25T08:28:14.272Z,14.90
2022-10-25T08:29:13.978Z,14.96
2022-10-25T08:30:15.398Z,14.99
2022-10-25T08:31:14.053Z,15.02
2022-10-25T08:32:13.649Z,15.05
2022-10-25T08:33:16.946Z,15.05
2022-10-25T08:34:14.443Z,15.06
2022-10-25T08:35:14.518Z,15.06
2022-10-25T08:36:14.147Z,15.07
2022-10-25T08:37:13.866Z,15.08
2022-10-25T08:38:14.711Z,15.13
2022-10-25T08:39:14.485Z,15.16
2022-10-25T08:40:14.391Z,15.17
2022-10-25T08:41:13.950Z,15.18
2022-10-25T08:42:14.771Z,15.19
2022-10-25T08:43:14.598Z,15.19
2022-10-25T08:44:14.106Z,15.22
2022-10-25T08:45:13.986Z,15.24
2022-10-25T08:46:13.826Z,15.27
2022-10-25T08:47:14.360Z,15.28
2022-10-25T08:48:14.081Z,15.30
2022-10-25T08:49:21.892Z,15.36
2022-10-25T08:50:14.846Z,15.36
2022-10-25T08:51:14.929Z,15.33
2022-10-25T08:53:13.833Z,16.03
2022-10-25T08:54:14.235Z,16.33
2022-10-25T08:55:14.006Z,16.19
2022-10-25T08:56:22.260Z,15.86
2022-10-25T08:57:21.281Z,15.77
2022-10-25T08:58:14.274Z,15.77
2022-10-25T08:59:14.123Z,15.76
2022-10-25T09:00:15.130Z,15.76
2022-10-25T09:01:21.741Z,15.77
2022-10-25T09:02:14.626Z,15.74
2022-10-25T09:03:25.107Z,15.72
2022-10-25T09:04:13.856Z,15.72
2022-10-25T09:05:14.897Z,15.71
2022-10-25T09:06:14.565Z,15.69
2022-10-25T09:07:15.087Z,15.71
2022-10-25T09:08:13.840Z,15.76
2022-10-25T09:09:14.890Z,15.76
2022-10-25T09:10:14.827Z,15.70
2022-10-25T09:11:14.647Z,15.69
2022-10-25T09:12:14.084Z,15.72
2022-10-25T09:13:15.962Z,15.71
2022-10-25T09:14:14.703Z,15.70
2022-10-25T09:15:14.559Z,15.73
2022-10-25T09:16:13.981Z,15.70
2022-10-25T09:17:14.795Z,15.70
2022-10-25T09:18:14.700Z,15.73
2022-10-25T09:19:14.371Z,15.74
2022-10-25T09:20:14.140Z,15.74
2022-10-25T09:21:23.022Z,15.77
2022-10-25T09:22:14.060Z,15.77
2022-10-25T09:23:14.092Z,15.79
2022-10-25T09:24:13.712Z,15.78
2022-10-25T09:25:14.930Z,15.77
2022-10-25T09:26:14.637Z,15.76
2022-10-25T09:27:14.156Z,15.71
2022-10-25T09:28:13.647Z,15.68
2022-10-25T09:29:14.483Z,15.68
2022-10-25T09:30:14.734Z,15.71
2022-10-25T09:31:14.155Z,15.68
2022-10-25T09:32:13.698Z,15.74
2022-10-25T09:33:14.597Z,16.13
2022-10-25T09:34:14.416Z,16.45
2022-10-25T09:35:14.196Z,16.46
2022-10-25T09:36:13.650Z,16.48
2022-10-25T09:37:14.428Z,16.67
2022-10-25T09:38:14.503Z,14
2022-10-25T09:39:21.214Z,16.71
2022-10-25T09:40:14.238Z,16.71
2022-10-25T09:41:13.706Z,16.42
2022-10-25T09:42:14.301Z,16.25
2022-10-25T09:43:13.831Z,16.11
2022-10-25T09:44:14.333Z,16.00
2022-10-25T09:45:15.722Z,15.93
2022-10-25T09:46:14.492Z,15.90
2022-10-25T09:47:14.203Z,15.89
2022-10-25T09:48:13.919Z,15.91
2022-10-25T09:49:14.837Z,15.89
2022-10-25T09:50:14.705Z,15.88
2022-10-25T09:51:14.668Z,15.90
2022-10-25T09:52:16.029Z,15.88
2022-10-25T09:53:13.591Z,15.87
2022-10-25T09:54:13.787Z,15.87
2022-10-25T09:55:14.584Z,15.88
2022-10-25T09:56:14.298Z,15.86
2022-10-25T09:57:14.031Z,15.83
2022-10-25T09:58:13.653Z,15.84
2022-10-25T09:59:14.211Z,15.85
2022-10-25T10:00:15.207Z,15.88
2022-10-25T10:01:14.075Z,15.87
2022-10-25T10:02:14.176Z,15.87
2022-10-25T10:03:13.953Z,15.89
2022-10-25T10:04:14.692Z,15.93
2022-10-25T10:05:14.625Z,15.95
2022-10-25T10:06:14.385Z,15.96
2022-10-25T10:07:13.717Z,15.97
2022-10-25T10:08:14.204Z,16.03
2022-10-25T10:09:14.181Z,16.07
2022-10-25T10:10:14.162Z,16.12
2022-10-25T10:11:13.917Z,16.14
2022-10-25T10:12:15.072Z,16.16
2022-10-25T10:13:13.870Z,16.16
2022-10-25T10:14:15.138Z,16.17
2022-10-25T10:15:14.033Z,16.16
2022-10-25T10:16:13.821Z,16.16
2022-10-25T10:17:14.561Z,16.11
2022-10-25T10:18:14.540Z,16.12
2022-10-25T10:19:14.331Z,16.12
2022-10-25T10:20:14.364Z,16.11
2022-10-25T10:21:14.078Z,16.13
2022-10-25T10:22:13.831Z,16.14
2022-10-25T10:23:14.627Z,16.17
2022-10-25T10:24:15.120Z,16.18
2022-10-25T10:25:13.992Z,16.20
2022-10-25T10:26:13.759Z,16.25
2022-10-25T10:27:14.745Z,16.29
2022-10-25T10:28:14.775Z,16.33
2022-10-25T10:29:17.885Z,16.36
2022-10-25T10:30:14.185Z,16.36
2022-10-25T10:31:14.008Z,16.38
2022-10-25T10:32:13.631Z,16.45
2022-10-25T10:33:14.212Z,16.45
2022-10-25T10:34:13.979Z,16.48
2022-10-25T10:35:14.852Z,16.46
2022-10-25T10:36:14.889Z,16.45
2022-10-25T10:37:14.901Z,16.45
2022-10-25T10:38:14.645Z,16.43
2022-10-25T10:39:14.267Z,16.44
2022-10-25T10:40:14.284Z,16.47
2022-10-25T10:41:14.282Z,16.46
2022-10-25T10:43:14.202Z,16.45
2022-10-25T10:44:13.909Z,16.41
2022-10-25T10:45:15.220Z,16.39
2022-10-25T10:46:13.736Z,16.37
2022-10-25T10:47:14.380Z,16.38
2022-10-25T10:48:14.081Z,16.36
2022-10-25T10:49:13.618Z,16.35
2022-10-25T10:50:14.621Z,16.36
2022-10-25T10:51:44.969Z,16.37
2022-10-25T10:52:14.167Z,16.37
2022-10-25T10:53:13.862Z,16.37
2022-10-25T10:54:14.581Z,16.39
2022-10-25T10:55:14.560Z,16.40
2022-10-25T10:56:14.032Z,16.42
2022-10-25T10:57:13.946Z,16.44
2022-10-25T10:58:14.869Z,16.45
2022-10-25T10:59:14.760Z,16.48
2022-10-25T11:01:15.336Z,16.51
2022-10-25T11:03:13.646Z,16.57
2022-10-25T11:04:14.369Z,16.60
2022-10-25T11:05:14.199Z,16.63
2022-10-25T11:06:14.174Z,16.64
2022-10-25T11:07:13.846Z,16.63
2022-10-25T11:08:13.750Z,16.65
2022-10-25T11:09:15.012Z,16.70
2022-10-25T11:10:13.728Z,16.75
2022-10-25T11:11:14.691Z,16.70
2022-10-25T11:12:14.583Z,16.68
2022-10-25T11:13:14.944Z,16.68
2022-10-25T11:14:14.996Z,16.69
2022-10-25T11:15:14.050Z,16.72
2022-10-25T11:16:15.038Z,16.72
2022-10-25T11:17:13.677Z,16.72
2022-10-25T11:18:14.407Z,16.73
2022-10-25T11:19:14.144Z,16.75
2022-10-25T11:20:13.961Z,16.77
2022-10-25T11:21:13.490Z,16.79
2022-10-25T11:22:14.165Z,16.79
2022-10-25T11:23:13.839Z,16.76
2022-10-25T11:24:22.999Z,16.75
2022-10-25T11:25:14.062Z,16.75
2022-10-25T11:26:13.856Z,16.71
2022-10-25T11:27:14.684Z,16.67
2022-10-25T11:28:14.581Z,16.64
2022-10-25T11:29:16.071Z,16.64
2022-10-25T11:30:14.507Z,16.68
2022-10-25T11:31:14.128Z,16.68
2022-10-25T11:32:14.015Z,16.68
2022-10-25T11:33:13.699Z,16.65
2022-10-25T11:34:14.865Z,16.62
2022-10-25T11:35:14.782Z,16.61
2022-10-25T11:36:14.134Z,16.62
2022-10-25T11:37:13.683Z,16.65
2022-10-25T11:38:14.591Z,16.68
2022-10-25T11:39:14.208Z,16.71
2022-10-25T11:40:28.376Z,16.74
2022-10-25T11:41:13.865Z,16.74
2022-10-25T11:42:14.163Z,16.75
2022-10-25T11:43:13.624Z,16.80
2022-10-25T11:44:33.157Z,16.79
2022-10-25T11:45:14.235Z,16.75
2022-10-25T11:46:32.849Z,16.71
2022-10-25T11:47:14.777Z,16.71
2022-10-25T11:48:14.536Z,17.05
2022-10-25T11:49:13.923Z,14
2022-10-25T11:50:14.879Z,18.84
2022-10-25T11:51:14.930Z,18.05
2022-10-25T11:53:14.485Z,17.43
2022-10-25T11:54:42.280Z,17.20
2022-10-25T11:55:14.247Z,17.20
2022-10-25T11:56:13.841Z,17.15
2022-10-25T11:57:14.510Z,17.09
2022-10-25T11:58:14.039Z,17.08
2022-10-25T11:59:13.639Z,17.07
2022-10-25T12:00:37.506Z,17.05
2022-10-25T12:01:14.344Z,17.03
2022-10-25T12:02:14.255Z,17.00
2022-10-25T12:03:14.492Z,16.98
2022-10-25T12:04:14.270Z,17
2022-10-25T12:05:14.123Z,16.99
2022-10-25T12:06:14.049Z,16.98
2022-10-25T12:07:13.646Z,17.01
2022-10-25T12:08:14.075Z,17.01
2022-10-25T12:09:13.872Z,16.97
2022-10-25T12:10:14.772Z,16.93
2022-10-25T12:11:18.895Z,16.92
2022-10-25T12:12:13.786Z,16.92
2022-10-25T12:13:14.769Z,16.94
2022-10-25T12:14:14.160Z,16.92
2022-10-25T12:15:14.155Z,16.88
2022-10-25T12:16:13.697Z,16.87
2022-10-25T12:17:14.447Z,16.85
2022-10-25T12:18:13.773Z,16.84
2022-10-25T12:19:14.282Z,16.90
2022-10-25T12:20:14.021Z,16.94
2022-10-25T12:21:13.745Z,16.96
2022-10-25T12:22:14.282Z,16.95
2022-10-25T12:23:13.544Z,16.95
2022-10-25T12:24:14.272Z,16.87
2022-10-25T12:25:13.944Z,16.84
2022-10-25T12:26:14.498Z,16.82
2022-10-25T12:27:13.963Z,16.84
2022-10-25T12:28:14.768Z,16.83
2022-10-25T12:29:14.597Z,16.84
2022-10-25T12:30:50.403Z,16.88
2022-10-25T12:31:14.413Z,16.88
2022-10-25T12:32:14.527Z,16.87
2022-10-25T12:33:14.388Z,16.83
2022-10-25T12:34:14.275Z,16.81
2022-10-25T12:35:14.230Z,16.85
2022-10-25T12:36:14.209Z,16.89
2022-10-25T12:37:14.033Z,16.94
2022-10-25T12:38:14.013Z,16.96
2022-10-25T12:39:13.894Z,16.98
2022-10-25T12:40:15.024Z,17
2022-10-25T12:41:13.857Z,17.01
2022-10-25T12:42:14.590Z,17.05
2022-10-25T12:43:13.960Z,17.10
2022-10-25T12:44:14.725Z,17.12
2022-10-25T12:45:14.708Z,17.14
2022-10-25T12:46:14.152Z,17.17
2022-10-25T12:47:13.680Z,17.19
2022-10-25T12:48:14.671Z,17.19
2022-10-25T12:49:15.001Z,17.19
2022-10-25T12:50:14.034Z,17.20
2022-10-25T12:51:16.604Z,17.22
2022-10-25T12:52:14.198Z,17.21
2022-10-25T12:53:13.579Z,17.17
2022-10-25T12:54:14.387Z,17.22
2022-10-25T12:55:14.038Z,17.22
2022-10-25T12:56:13.654Z,17.23
2022-10-25T12:57:14.315Z,17.24
2022-10-25T12:58:13.742Z,17.28
2022-10-25T12:59:15.003Z,17.36
2022-10-25T13:00:14.475Z,17.41
2022-10-25T13:01:14.017Z,17.43
2022-10-25T13:02:13.630Z,17.45
2022-10-25T13:03:19.326Z,17.46